createdAt,value
2022-12-12T00:00:27.787Z,99769.19
2022-12-12T00:05:51.529Z,99776.16
2022-12-12T00:11:14.189Z,99766.48
2022-12-12T00:16:37.056Z,99767.27
2022-12-12T00:21:59.649Z,99766.20
2022-12-12T00:27:22.471Z,99762.55
2022-12-12T00:32:44.736Z,99763.19
2022-12-12T00:38:07.062Z,99761.34
2022-12-12T00:43:29.605Z,99764.44
2022-12-12T00:48:51.954Z,99761.88
2022-12-12T00:54:14.591Z,99757.45
2022-12-12T00:59:36.860Z,99748.52
2022-12-12T01:04:59.196Z,99751.94
2022-12-12T01:10:23.003Z,99756.14
2022-12-12T01:15:45.516Z,99742.11
2022-12-12T01:21:07.977Z,99736.66
2022-12-12T01:26:33.953Z,99736.73
2022-12-12T01:31:56.134Z,99732.38
2022-12-12T01:37:18.414Z,99734.09
2022-12-12T01:42:41.865Z,99740.22
2022-12-12T01:48:05.565Z,99730.38
2022-12-12T01:53:30.085Z,99718.91
2022-12-12T01:58:54.672Z,99718.05
2022-12-12T02:04:19.631Z,99713.86
2022-12-12T02:09:44.972Z,99714.12
2022-12-12T02:15:08.425Z,99706.92
2022-12-12T02:20:44.540Z,99700.75
2022-12-12T02:26:49.380Z,99692.44
2022-12-12T02:32:20.107Z,99696.71
2022-12-12T02:37:50.305Z,99696.48
2022-12-12T02:43:26.944Z,99698.86
2022-12-12T02:49:19.225Z,99705.43
2022-12-12T02:54:42.176Z,99701.71
2022-12-12T03:00:15.649Z,99702.52
2022-12-12T03:06:05.814Z,99710.55
2022-12-12T03:18:03.539Z,99688.26
2022-12-12T03:23:30.698Z,99692.52
2022-12-12T03:28:57.764Z,99696.41
2022-12-12T03:34:33.302Z,99691.44
2022-12-12T03:40:05.013Z,99689.14
2022-12-12T03:45:49.541Z,99687.91
2022-12-12T03:51:31.961Z,99687.53
2022-12-12T03:57:05.008Z,99693.12
2022-12-12T04:02:52.076Z,99692.66
2022-12-12T04:08:23.559Z,99692.91
2022-12-12T04:14:05.642Z,99692.05
2022-12-12T04:19:56.682Z,99684.76
2022-12-12T04:25:25.456Z,99691.13
2022-12-12T04:30:50.442Z,99687.11
2022-12-12T04:36:15.290Z,99702.80
2022-12-12T04:41:41.910Z,99687.64
2022-12-12T04:47:07.453Z,99698.53
2022-12-12T04:52:32.767Z,99696.68
2022-12-12T04:57:59.692Z,99687.78
2022-12-12T05:03:48.722Z,99693.77
2022-12-12T05:09:14.337Z,99689.34
2022-12-12T05:14:37.759Z,99700.70
2022-12-12T05:19:59.948Z,99692.91
2022-12-12T05:25:22.651Z,99691.66
2022-12-12T05:30:45.461Z,99690.95
2022-12-12T05:36:07.672Z,99688.45
2022-12-12T05:41:30.084Z,99686.86
2022-12-12T05:46:52.404Z,99678.31
2022-12-12T05:52:14.613Z,99682.58
2022-12-12T05:57:37.387Z,99676.39
2022-12-12T06:03:00.112Z,99681.80
2022-12-12T06:08:25.214Z,99687.58
2022-12-12T06:13:47.509Z,99678.10
2022-12-12T06:19:10.949Z,99678.35
2022-12-12T06:24:33.717Z,99673.69
2022-12-12T06:29:55.882Z,99683.53
2022-12-12T06:35:18.522Z,99677.55
2022-12-12T06:40:41.568Z,99686.78
2022-12-12T06:46:05.512Z,99684.39
2022-12-12T06:51:35.977Z,99689.62
2022-12-12T06:56:58.628Z,99690.27
2022-12-12T07:02:29.276Z,99686.64
2022-12-12T07:07:47.135Z,99691.05
2022-12-12T07:13:09.489Z,99688.17
2022-12-12T07:18:33.060Z,99694.09
2022-12-12T07:23:55.299Z,99687.33
2022-12-12T07:29:19.113Z,99685.30
2022-12-12T07:34:43.745Z,99694.83
2022-12-12T07:40:08.694Z,99688.95
2022-12-12T07:45:33.190Z,99687.98
2022-12-12T07:50:58.192Z,99692.77
2022-12-12T07:56:25.463Z,99684.45
2022-12-12T08:01:50.138Z,99688.02
2022-12-12T08:07:15.527Z,99687.36
2022-12-12T08:12:41.541Z,99703.35
2022-12-12T08:18:06.264Z,99695.73
2022-12-12T08:23:31.493Z,99692.53
2022-12-12T08:28:55.647Z,99691.41
2022-12-12T08:34:19.790Z,99684.77
2022-12-12T08:39:44.575Z,99688.25
2022-12-12T08:45:09.842Z,99680.80
2022-12-12T08:50:33.814Z,99685.01
2022-12-12T08:55:59.259Z,99686.82
2022-12-12T09:01:25.610Z,99678.73
2022-12-12T09:06:48.909Z,99691.56
2022-12-12T09:12:13.152Z,99663.81
2022-12-12T09:17:37.825Z,99655.72
2022-12-12T09:23:02.324Z,99666.29
2022-12-12T09:28:27.700Z,99663.64
2022-12-12T09:33:52.998Z,99676.78
2022-12-12T09:39:17.414Z,99656.27
2022-12-12T09:44:42.121Z,99684.48
2022-12-12T09:50:14.582Z,99664.97
2022-12-12T09:56:17.722Z,99662.53
2022-12-12T10:02:01.772Z,99670.16
2022-12-12T10:07:58.442Z,99667.44
2022-12-12T10:13:37.173Z,99674.30
2022-12-12T10:19:05.612Z,99667.81
2022-12-12T10:24:48.886Z,99674.80
2022-12-12T10:30:22.924Z,99680.09
2022-12-12T10:35:57.780Z,99682.43
2022-12-12T10:41:30.128Z,99693.60
2022-12-12T10:47:02.268Z,99675.04
2022-12-12T10:52:40.773Z,99672.53
2022-12-12T10:58:17.036Z,99678.91
2022-12-12T11:03:54.520Z,99671.48
2022-12-12T11:09:23.405Z,99666.81
2022-12-12T11:14:57.323Z,99665.55
2022-12-12T11:20:25.233Z,99675.78
2022-12-12T11:25:51.044Z,99673.04
2022-12-12T11:31:21.618Z,99682.05
2022-12-12T11:36:54.810Z,99686.67
2022-12-12T11:42:35.297Z,99690.34
2022-12-12T11:48:02.317Z,99669.81
2022-12-12T11:53:28.610Z,99687.70
2022-12-12T11:59:07.272Z,99699.58
2022-12-12T12:04:58.452Z,99684.65
2022-12-12T12:10:54.443Z,99669.27
2022-12-12T12:16:41.705Z,99684.20
2022-12-12T12:22:11.018Z,99687.52
2022-12-12T12:27:57.537Z,99688.28
2022-12-12T12:33:44.988Z,99684.47
2022-12-12T12:39:28.836Z,99679.90
2022-12-12T12:45:16.300Z,99685.53
2022-12-12T12:50:45.836Z,99677.05
2022-12-12T13:01:58.310Z,99674.19
2022-12-12T13:07:39.111Z,99680.95
2022-12-12T13:13:27.983Z,99689.68
2022-12-12T13:18:55.664Z,99692.38
2022-12-12T13:24:34.450Z,99697.66
2022-12-12T13:30:09.103Z,99695.10
2022-12-12T13:35:56.937Z,99703.75
2022-12-12T13:41:25.959Z,99689.81
2022-12-12T13:46:56.931Z,99701.41
2022-12-12T13:52:43.175Z,99700.02
2022-12-12T13:58:41.616Z,99699.24
2022-12-12T14:04:07.270Z,99703.20
2022-12-12T14:09:47.914Z,99723.80
2022-12-12T14:15:16.171Z,99718.59
2022-12-12T14:21:03.980Z,99713.39
2022-12-12T14:26:50.536Z,99712.45
2022-12-12T14:32:39.821Z,99710.83
2022-12-12T14:38:18.071Z,99731.11
2022-12-12T14:43:47.065Z,99734.69
2022-12-12T14:49:27.766Z,99752.25
2022-12-12T14:54:53.146Z,99751.40
2022-12-12T15:00:24.983Z,99760.02
2022-12-12T15:05:48.572Z,99754.81
2022-12-12T15:11:22.708Z,99767.09
2022-12-12T15:16:50.587Z,99766.16
2022-12-12T15:22:19.301Z,99762.66
2022-12-12T15:27:52.336Z,99767.41
2022-12-12T15:33:15.491Z,99772.05
2022-12-12T15:38:40.537Z,99774.94
2022-12-12T15:44:04.536Z,99775.38
2022-12-12T15:49:51.174Z,99778.46
2022-12-12T15:55:27.735Z,99780.45
2022-12-12T16:00:58.626Z,99794.43
2022-12-12T16:06:32.038Z,99786.38
2022-12-12T16:12:03.391Z,99790.81
2022-12-12T16:17:39.425Z,99782.08
2022-12-12T16:23:16.715Z,99789.80
2022-12-12T16:28:43.096Z,99793.14
2022-12-12T16:34:09.284Z,99801.92
2022-12-12T16:39:33.524Z,99816.05
2022-12-12T16:44:56.355Z,99814.19
2022-12-12T16:50:20.345Z,99816.05
2022-12-12T16:55:43.988Z,99803.00
2022-12-12T17:01:06.616Z,99807.72
2022-12-12T17:06:28.883Z,99819.48
2022-12-12T17:11:52.115Z,99818.70
2022-12-12T17:17:14.369Z,99837.34
2022-12-12T17:22:38.829Z,99844.68
2022-12-12T17:28:04.890Z,99837.84
2022-12-12T17:33:28.398Z,99834.42
2022-12-12T17:38:52.671Z,99844.17
2022-12-12T17:44:16.442Z,99840.55
2022-12-12T17:49:40.855Z,99848.25
2022-12-12T17:55:54.330Z,99848.09
2022-12-12T18:00:31.431Z,99853.26
2022-12-12T18:05:54.591Z,99854.97
2022-12-12T18:11:25.089Z,99856.53
2022-12-12T18:16:53.758Z,99860.33
2022-12-12T18:22:16.730Z,99864.36
2022-12-12T18:27:40.770Z,99870.20
2022-12-12T18:33:03.424Z,99871.01
2022-12-12T18:38:25.819Z,99867.33
2022-12-12T18:43:49.680Z,99874.02
2022-12-12T18:49:14.610Z,99877.41
2022-12-12T18:54:36.830Z,99884.25
2022-12-12T18:59:59.603Z,99884.32
2022-12-12T19:05:23.796Z,99901.02
2022-12-12T19:10:47.843Z,99893.42
2022-12-12T19:16:16.205Z,99893.12
2022-12-12T19:21:40.898Z,99912.13
2022-12-12T19:27:03.829Z,99917.79
2022-12-12T19:32:26.585Z,99928.66
2022-12-12T19:37:48.849Z,99932.45
2022-12-12T19:43:11.583Z,99937.08
2022-12-12T19:48:34.169Z,99945.30
2022-12-12T19:54:00.455Z,99955.22
2022-12-12T19:59:27.439Z,99961.05
2022-12-12T20:04:49.915Z,99956.70
2022-12-12T20:10:13.729Z,99977.13
2022-12-12T20:15:36.988Z,99976.44
2022-12-12T20:26:37.475Z,99984.58
2022-12-12T20:32:02.459Z,99971.39
2022-12-12T20:37:24.750Z,99987.27
2022-12-12T20:42:54.118Z,99978.13
2022-12-12T20:48:10.982Z,99990.53
2022-12-12T20:53:36.377Z,99999.30
2022-12-12T20:59:01.558Z,99992.44
2022-12-12T21:04:26.222Z,99988.09
2022-12-12T21:09:48.484Z,99993.64
2022-12-12T21:15:12.489Z,99996.67
2022-12-12T21:20:35.325Z,99997.47
2022-12-12T21:25:57.587Z,100001.41
2022-12-12T21:31:29.495Z,100007.27
2022-12-12T21:36:52.309Z,100012.56
2022-12-12T21:42:15.043Z,100021.04
2022-12-12T21:47:37.646Z,100022.47
2022-12-12T21:53:17.661Z,100024.08
2022-12-12T21:58:33.609Z,100025.80
2022-12-12T22:03:57.156Z,100028.02
2022-12-12T22:09:21.307Z,100021.88
2022-12-12T22:14:44.687Z,100022.61
2022-12-12T22:20:07.106Z,100030.39
2022-12-12T22:25:29.481Z,100032.06
2022-12-12T22:30:51.672Z,100031.23
2022-12-12T22:36:21.087Z,100035.98
2022-12-12T22:41:43.447Z,100038.66
2022-12-12T22:47:07.877Z,100033.34
2022-12-12T22:52:30.203Z,100034.94
2022-12-12T22:57:52.366Z,100046.53
2022-12-12T23:03:14.544Z,100050.69
2022-12-12T23:08:36.856Z,100053.89
2022-12-12T23:14:04.249Z,100051.05
2022-12-12T23:19:30.156Z,100044.98
2022-12-12T23:24:52.368Z,100042.41
2022-12-12T23:30:15.266Z,100061.92
2022-12-12T23:35:37.443Z,100057.73
2022-12-12T23:41:00.451Z,100068.92
2022-12-12T23:46:34.671Z,100070.13
2022-12-12T23:52:06.380Z,100060.63
2022-12-12T23:57:29.118Z,100075.77
